Time;durP1;ratioP1;P1;durP2;ratioP2;P2;SDS_P1;SDS_P2;PMS_P1;PMS_P2;Temp;Humidity;BMP_temperature;BMP_pressure;BME280_temperature;BME280_humidity;BME280_pressure;Samples;Min_cycle;Max_cycle;Signal;HPM_P1;HPM_P2
2022/06/18 00:01:34;;;;;;;10.50;9.37;;;;;;;16.64;81.99;100637.37;1739155;80;21792;-71
2022/06/18 00:04:14;;;;;;;10.20;9.20;;;;;;;16.60;82.26;100643.91;1737385;80;22016;-70
2022/06/18 00:07:00;;;;;;;10.17;9.07;;;;;;;16.56;82.64;100641.55;1741527;80;22341;-71
2022/06/18 00:09:33;;;;;;;9.53;8.63;;;;;;;16.53;83.02;100644.83;1738991;80;21741;-70
2022/06/18 00:14:58;;;;;;;9.27;8.30;;;;;;;16.50;83.75;100637.88;1741712;80;21065;-71
2022/06/18 00:17:26;;;;;;;8.13;7.33;;;;;;;16.47;83.41;100634.42;1741829;80;21722;-71
2022/06/18 00:19:53;;;;;;;9.17;8.20;;;;;;;16.45;83.59;100633.35;1741322;80;21759;-72
2022/06/18 00:22:21;;;;;;;9.33;8.43;;;;;;;16.44;83.59;100630.41;1741441;80;21842;-73
2022/06/18 00:24:49;;;;;;;9.73;8.83;;;;;;;16.42;83.57;100625.88;1742069;80;21741;-73
2022/06/18 00:27:16;;;;;;;10.23;9.00;;;;;;;16.42;83.57;100625.88;1741155;80;21791;-72
2022/06/18 00:29:46;;;;;;;11.23;10.03;;;;;;;16.37;83.62;100623.25;1741832;80;21723;-72
2022/06/18 00:32:12;;;;;;;12.97;11.67;;;;;;;16.34;83.59;100623.28;1741748;80;21693;-72
2022/06/18 00:34:40;;;;;;;11.23;10.13;;;;;;;16.32;83.39;100623.32;1738089;80;21704;-72
2022/06/18 00:37:07;;;;;;;12.87;11.50;;;;;;;16.26;83.26;100618.58;1738720;80;22053;-71
2022/06/18 00:39:35;;;;;;;10.80;9.80;;;;;;;16.27;83.25;100618.82;1740507;80;21784;-72
2022/06/18 00:42:07;;;;;;;11.50;9.60;;;;;;;16.27;83.21;100619.38;1741270;80;21742;-72
2022/06/18 00:44:38;;;;;;;12.77;11.57;;;;;;;16.26;83.20;100617.23;1741347;80;21867;-72
2022/06/18 00:47:34;;;;;;;13.50;12.07;;;;;;;16.27;83.17;100618.82;1714137;80;21765;-73
2022/06/18 00:50:07;;;;;;;11.93;10.83;;;;;;;16.26;83.16;100615.08;1737879;80;21834;-72
2022/06/18 00:52:46;;;;;;;10.73;9.63;;;;;;;16.25;83.15;100620.20;1741348;80;21801;-71
2022/06/18 00:55:30;;;;;;;9.43;8.53;;;;;;;16.24;83.14;100622.09;1740383;80;21767;-71
2022/06/18 00:58:06;;;;;;;7.87;7.13;;;;;;;16.23;83.50;100611.62;1714599;80;21793;-72
2022/06/18 01:00:43;;;;;;;8.57;7.73;;;;;;;16.26;83.37;100614.53;1729074;80;21654;-72
2022/06/18 01:03:30;;;;;;;9.63;7.60;;;;;;;16.26;83.49;100616.44;1713598;80;21755;-71
2022/06/18 01:06:01;;;;;;;8.97;7.57;;;;;;;16.23;83.52;100604.89;1741093;80;21788;-72
2022/06/18 01:08:30;;;;;;;10.33;8.60;;;;;;;16.24;83.66;100610.52;1742891;80;21945;-73
2022/06/18 01:11:00;;;;;;;9.17;8.27;;;;;;;16.22;83.74;100610.80;1738381;81;22205;-72
2022/06/18 01:13:34;;;;;;;8.40;7.58;;;;;;;16.24;83.75;100612.67;1726912;81;21742;-73
2022/06/18 01:16:01;;;;;;;9.47;8.47;;;;;;;16.26;83.88;100605.66;1711125;80;22174;-72
2022/06/18 01:18:28;;;;;;;9.93;8.07;;;;;;;16.28;84.01;100602.09;1740715;80;21787;-72
2022/06/18 01:21:17;;;;;;;10.37;7.93;;;;;;;16.28;83.99;100594.02;1740978;80;21725;-72
2022/06/18 01:23:49;;;;;;;9.83;8.57;;;;;;;16.28;83.94;100609.63;1741698;80;21794;-71
2022/06/18 01:26:16;;;;;;;8.90;8.00;;;;;;;16.29;83.93;100603.72;1739953;80;22288;-72
2022/06/18 01:28:44;;;;;;;8.67;7.77;;;;;;;16.29;84.06;100606.41;1740423;80;21748;-72
2022/06/18 01:31:11;;;;;;;8.47;7.63;;;;;;;16.28;84.14;100604.80;1741555;80;21778;-71
2022/06/18 01:33:38;;;;;;;8.80;7.90;;;;;;;16.28;84.19;100607.48;1739999;80;22314;-71
2022/06/18 01:36:08;;;;;;;8.90;8.00;;;;;;;16.28;84.29;100606.14;1742369;80;22157;-72
2022/06/18 01:38:43;;;;;;;8.50;7.60;;;;;;;16.27;84.33;100608.59;1740784;80;22884;-72
2022/06/18 01:44:09;;;;;;;8.30;7.47;;;;;;;16.21;84.54;100611.11;1740276;80;21048;-72
2022/06/18 01:46:36;;;;;;;8.33;7.50;;;;;;;16.13;84.58;100611.23;1741211;80;21781;-72
2022/06/18 01:49:06;;;;;;;9.13;8.27;;;;;;;16.09;84.55;100608.33;1740287;80;21126;-71
2022/06/18 01:51:37;;;;;;;9.37;8.33;;;;;;;16.12;84.27;100605.57;1709050;80;23284;-72
2022/06/18 01:54:22;;;;;;;7.70;7.00;;;;;;;16.14;84.26;100598.01;1740923;80;21710;-72
2022/06/18 01:56:53;;;;;;;9.00;8.00;;;;;;;16.04;84.41;100601.66;1740173;80;21696;-72
2022/06/18 01:59:30;;;;;;;9.65;7.53;;;;;;;16.00;84.39;100608.72;1739986;80;21781;-73
2022/06/18 02:01:59;;;;;;;8.70;7.33;;;;;;;16.00;84.33;100608.72;1741218;80;21040;-72
2022/06/18 02:04:26;;;;;;;9.13;6.90;;;;;;;15.99;84.38;100604.44;1741716;80;22271;-73
2022/06/18 02:06:53;;;;;;;7.70;7.00;;;;;;;15.99;84.34;100609.00;1741523;80;21811;-72
2022/06/18 02:09:39;;;;;;;7.57;6.77;;;;;;;15.96;84.18;100605.02;1740868;82;21756;-73
2022/06/18 02:12:10;;;;;;;8.43;7.53;;;;;;;15.94;84.22;100605.30;1740977;81;21791;-72
2022/06/18 02:14:40;;;;;;;9.37;8.07;;;;;;;15.90;84.17;100600.23;1741947;82;21612;-73
2022/06/18 02:17:09;;;;;;;9.07;7.93;;;;;;;15.86;84.05;100593.84;1742042;81;21737;-72
2022/06/18 02:19:37;;;;;;;8.00;7.20;;;;;;;15.85;84.00;100590.88;1742048;82;21741;-73
2022/06/18 02:22:05;;;;;;;7.57;6.33;;;;;;;15.87;83.78;100589.25;1742040;80;21526;-72
2022/06/18 02:24:32;;;;;;;8.93;8.00;;;;;;;15.89;84.01;100593.27;1682172;83;21693;-72
2022/06/18 02:26:58;;;;;;;8.70;7.90;;;;;;;15.87;83.95;100589.25;1713763;81;22236;-73
2022/06/18 02:29:28;;;;;;;9.63;7.67;;;;;;;15.86;83.98;100592.50;1742234;82;22294;-72
2022/06/18 02:31:54;;;;;;;7.70;7.00;;;;;;;15.89;84.06;100595.12;1742023;82;21804;-72
2022/06/18 02:34:25;;;;;;;8.07;7.27;;;;;;;15.92;84.05;100594.00;1742218;81;21707;-72
2022/06/18 02:36:55;;;;;;;7.90;7.10;;;;;;;15.97;84.14;100597.18;1742062;82;21739;-72
2022/06/18 02:39:30;;;;;;;7.97;7.10;;;;;;;15.99;84.11;100601.74;1710926;82;21762;-72
2022/06/18 02:42:11;;;;;;;7.60;6.80;;;;;;;16.03;84.00;100611.39;1741607;81;21693;-73
2022/06/18 02:44:41;;;;;;;7.27;6.27;;;;;;;16.04;84.14;100609.73;1742072;81;22271;-73
2022/06/18 02:47:08;;;;;;;8.50;6.57;;;;;;;16.07;84.19;100610.50;1742064;81;21695;-73
2022/06/18 02:49:39;;;;;;;6.97;6.27;;;;;;;16.11;84.18;100610.16;1741905;81;21809;-73
2022/06/18 02:52:07;;;;;;;7.47;6.13;;;;;;;16.16;84.15;100606.06;1736065;81;21660;-73
2022/06/18 02:54:34;;;;;;;8.60;6.60;;;;;;;16.21;84.08;100601.67;1772897;80;21724;-72
2022/06/18 02:57:09;;;;;;;7.47;5.57;;;;;;;16.27;83.86;100604.55;1743873;80;22175;-72
2022/06/18 02:59:35;;;;;;;7.47;6.10;;;;;;;16.31;83.74;100600.16;1741634;80;21810;-73
2022/06/18 03:02:02;;;;;;;7.90;5.80;;;;;;;16.36;83.49;100607.63;1741722;80;21722;-71
2022/06/18 03:04:29;;;;;;;6.17;5.57;;;;;;;16.43;83.31;100604.56;1740694;80;22280;-74
2022/06/18 03:06:58;;;;;;;6.53;5.80;;;;;;;16.46;83.08;100599.92;1741905;81;22130;-73
2022/06/18 03:09:26;;;;;;;6.70;5.57;;;;;;;16.52;82.90;100605.49;1742062;80;21655;-72
2022/06/18 03:12:07;;;;;;;9.23;5.90;;;;;;;16.58;82.50;100604.84;1741833;80;21731;-74
2022/06/18 03:14:38;;;;;;;6.07;5.43;;;;;;;16.63;82.29;100604.77;1742032;80;21724;-72
2022/06/18 03:17:05;;;;;;;6.30;5.43;;;;;;;16.74;81.85;100616.96;1708600;80;21785;-74
2022/06/18 03:19:40;;;;;;;6.87;6.00;;;;;;;16.77;81.83;100611.56;1741408;80;21739;-72
2022/06/18 03:22:16;;;;;;;6.00;5.33;;;;;;;16.82;81.68;100616.33;1741186;80;21733;-71
2022/06/18 03:24:45;;;;;;;5.67;5.00;;;;;;;16.86;81.40;100616.53;1710326;80;21751;-72
2022/06/18 03:27:13;;;;;;;6.77;5.80;;;;;;;16.83;80.70;100615.77;1741259;80;21778;-72
2022/06/18 03:29:42;;;;;;;6.30;5.00;;;;;;;16.82;80.58;100614.98;1741555;80;21753;-71
2022/06/18 03:32:09;;;;;;;6.67;4.80;;;;;;;16.83;80.03;100614.42;1741360;80;21750;-72
2022/06/18 03:34:38;;;;;;;6.20;5.00;;;;;;;16.77;78.57;100613.70;1738653;80;21776;-73
2022/06/18 03:37:05;;;;;;;5.67;5.07;;;;;;;16.75;78.95;100615.92;1741835;82;20956;-70
2022/06/18 03:39:32;;;;;;;7.20;5.63;;;;;;;16.82;78.81;100617.67;1741018;80;21814;-73
2022/06/18 03:41:59;;;;;;;6.27;5.17;;;;;;;16.82;78.81;100617.67;1711101;82;21890;-73
2022/06/18 03:44:27;;;;;;;5.87;5.20;;;;;;;16.88;78.78;100621.09;1740948;80;21086;-73
2022/06/18 03:46:56;;;;;;;7.23;5.23;;;;;;;16.91;78.73;100617.77;1738078;80;21054;-73
2022/06/18 03:49:29;;;;;;;7.10;6.33;;;;;;;16.93;78.42;100622.88;1740966;80;21599;-72
2022/06/18 03:51:57;;;;;;;5.77;5.27;;;;;;;16.93;78.31;100626.38;1740938;80;21090;-72
2022/06/18 03:54:24;;;;;;;7.57;6.10;;;;;;;16.94;78.05;100627.97;1741663;80;21069;-73
2022/06/18 03:56:51;;;;;;;7.00;6.30;;;;;;;16.91;77.82;100620.47;1741478;80;21080;-72
2022/06/18 03:59:18;;;;;;;6.57;5.60;;;;;;;16.90;77.82;100618.88;1742339;80;21020;-73
2022/06/18 04:01:45;;;;;;;7.20;6.50;;;;;;;16.84;77.69;100615.45;1740914;80;21053;-73
2022/06/18 04:04:13;;;;;;;6.37;5.77;;;;;;;16.84;77.69;100615.45;1741853;80;21147;-73
2022/06/18 04:06:42;;;;;;;7.07;6.37;;;;;;;16.84;78.05;100625.45;1741300;80;21081;-73
2022/06/18 04:09:21;;;;;;;7.20;6.50;;;;;;;16.83;78.25;100614.42;1715964;80;21608;-74
2022/06/18 04:11:51;;;;;;;8.53;6.17;;;;;;;16.87;78.43;100615.42;1742076;81;21041;-72
2022/06/18 04:14:17;;;;;;;7.17;6.47;;;;;;;16.93;78.41;100622.33;1742109;82;21081;-73
2022/06/18 04:17:01;;;;;;;9.03;7.77;;;;;;;16.97;78.36;100617.93;1660056;84;21105;-72
2022/06/18 04:19:28;;;;;;;8.07;7.27;;;;;;;16.96;78.32;100627.13;1711493;80;21052;-73
2022/06/18 04:21:56;;;;;;;8.27;7.47;;;;;;;17.01;78.39;100629.75;1739063;80;21013;-73
2022/06/18 04:24:24;;;;;;;8.43;7.30;;;;;;;17.05;78.40;100626.70;1739682;80;21597;-73
2022/06/18 04:26:54;;;;;;;9.30;8.43;;;;;;;17.10;78.42;100623.89;1741954;80;21048;-72
2022/06/18 04:29:21;;;;;;;8.00;7.20;;;;;;;17.17;78.31;100625.39;1741766;80;21833;-74
2022/06/18 04:31:51;;;;;;;10.13;9.13;;;;;;;17.23;78.14;100623.66;1741009;80;21063;-73
2022/06/18 04:34:20;;;;;;;9.47;8.57;;;;;;;17.25;77.88;100628.77;1741052;81;21107;-73
2022/06/18 04:36:57;;;;;;;9.00;8.20;;;;;;;17.29;77.88;100631.11;1738394;82;21043;-73
2022/06/18 04:39:35;;;;;;;8.77;7.87;;;;;;;17.35;77.68;100631.27;1740839;80;21058;-73
2022/06/18 04:42:15;;;;;;;9.27;7.87;;;;;;;17.32;77.33;100626.46;1658638;80;21649;-73
2022/06/18 04:44:45;;;;;;;9.73;8.53;;;;;;;17.37;77.56;100630.95;1741430;80;21039;-74
2022/06/18 04:47:16;;;;;;;9.60;8.70;;;;;;;17.42;77.50;100634.36;1742077;80;21035;-72
2022/06/18 04:49:43;;;;;;;10.13;9.23;;;;;;;17.46;77.46;100632.64;1740279;80;21056;-72
2022/06/18 04:52:13;;;;;;;10.10;9.20;;;;;;;17.53;77.33;100641.14;1741241;80;21058;-73
2022/06/18 04:54:44;;;;;;;10.38;9.28;;;;;;;17.58;77.18;100634.85;1741413;80;21914;-72
2022/06/18 04:57:10;;;;;;;10.63;9.53;;;;;;;17.71;77.19;100638.08;1741269;80;21512;-73
2022/06/18 04:59:41;;;;;;;10.00;9.10;;;;;;;18.18;75.46;100641.39;1738319;80;21052;-73
2022/06/18 05:02:17;;;;;;;10.40;9.23;;;;;;;17.88;75.82;100649.64;1739040;80;21039;-73
2022/06/18 05:05:04;;;;;;;10.97;9.80;;;;;;;17.82;76.02;100649.50;1740815;80;21115;-72
2022/06/18 05:07:43;;;;;;;9.90;9.00;;;;;;;17.80;76.28;100647.11;1735957;80;22242;-73
2022/06/18 05:10:12;;;;;;;9.63;8.73;;;;;;;17.80;75.89;100648.46;1735707;80;21035;-73
2022/06/18 05:12:41;;;;;;;10.20;9.20;;;;;;;17.83;75.97;100650.29;1738463;80;21055;-73
2022/06/18 05:15:18;;;;;;;11.57;10.47;;;;;;;17.90;76.09;100660.13;1737447;80;21511;-74
2022/06/18 05:17:46;;;;;;;12.60;11.40;;;;;;;18.00;76.00;100653.97;1741703;80;21610;-73
2022/06/18 05:20:21;;;;;;;11.03;9.93;;;;;;;18.09;75.82;100658.64;1741388;80;21467;-74
2022/06/18 05:22:49;;;;;;;10.80;9.77;;;;;;;18.17;75.53;100654.67;1740975;80;21051;-73
2022/06/18 05:25:16;;;;;;;11.50;10.37;;;;;;;18.27;75.37;100662.55;1742662;80;21033;-73
2022/06/18 05:27:44;;;;;;;11.43;10.33;;;;;;;18.35;75.13;100662.92;1741602;80;21139;-73
2022/06/18 05:30:18;;;;;;;10.70;9.60;;;;;;;18.41;74.52;100660.34;1737382;80;21078;-72
2022/06/18 05:32:46;;;;;;;11.30;10.20;;;;;;;18.49;73.94;100663.65;1738755;80;21508;-73
2022/06/18 05:35:16;;;;;;;11.20;10.00;;;;;;;18.64;73.15;100665.20;1740978;80;21500;-73
2022/06/18 05:37:43;;;;;;;11.33;10.23;;;;;;;18.78;72.55;100670.00;1741590;80;21132;-73
2022/06/18 05:40:12;;;;;;;11.60;10.60;;;;;;;18.97;71.33;100671.95;1742936;80;21041;-73
2022/06/18 05:42:41;;;;;;;11.53;10.43;;;;;;;19.11;70.37;100669.70;1747700;81;21604;-72
2022/06/18 05:45:09;;;;;;;11.27;10.13;;;;;;;19.19;70.08;100667.61;1742064;80;21127;-73
2022/06/18 05:47:38;;;;;;;11.23;9.77;;;;;;;19.24;68.88;100672.88;1741392;80;21106;-73
2022/06/18 05:50:07;;;;;;;11.10;10.00;;;;;;;19.32;68.89;100680.25;1740583;80;21110;-72
2022/06/18 05:52:35;;;;;;;10.45;9.55;;;;;;;19.48;68.60;100682.52;1741291;80;21426;-73
2022/06/18 05:55:04;;;;;;;10.80;9.80;;;;;;;19.67;68.26;100680.38;1706262;80;21012;-71
2022/06/18 05:57:52;;;;;;;11.83;10.63;;;;;;;19.80;67.44;100675.95;1739569;80;21341;-72
2022/06/18 06:00:24;;;;;;;13.93;11.10;;;;;;;19.99;66.71;100678.38;1740816;80;21108;-74
2022/06/18 06:02:51;;;;;;;10.90;9.73;;;;;;;20.12;65.79;100685.02;1741300;80;21571;-74
2022/06/18 06:05:18;;;;;;;11.87;10.17;;;;;;;20.20;65.28;100690.19;1742255;80;21112;-73
2022/06/18 06:07:45;;;;;;;12.17;11.03;;;;;;;20.23;64.56;100692.83;1741871;80;21004;-73
2022/06/18 06:13:14;;;;;;;11.40;10.20;;;;;;;20.21;63.70;100684.23;1741774;82;21598;-79
2022/06/18 06:15:42;;;;;;;10.90;9.90;;;;;;;20.20;63.24;100687.48;1742098;81;21550;-79
2022/06/18 06:18:13;;;;;;;11.97;10.87;;;;;;;20.19;63.48;100676.40;1737087;81;21642;-73
2022/06/18 06:20:45;;;;;;;12.97;11.77;;;;;;;20.21;63.84;100679.60;1733599;81;21047;-73
2022/06/18 06:23:11;;;;;;;12.73;11.50;;;;;;;20.21;63.65;100682.88;1739548;81;21459;-73
2022/06/18 06:25:38;;;;;;;12.00;10.80;;;;;;;20.24;62.96;100671.39;1727867;82;21648;-73
2022/06/18 06:28:05;;;;;;;11.47;10.43;;;;;;;20.39;63.05;100677.67;1731432;82;21037;-73
2022/06/18 06:30:32;;;;;;;12.50;11.40;;;;;;;20.59;63.22;100681.67;1742251;81;21071;-73
2022/06/18 06:32:59;;;;;;;12.97;11.77;;;;;;;20.78;63.33;100678.63;1757163;81;21015;-72
2022/06/18 06:35:25;;;;;;;11.80;10.70;;;;;;;20.85;62.86;100693.85;1742105;81;21929;-73
2022/06/18 06:37:52;;;;;;;12.33;11.03;;;;;;;20.90;61.52;100690.98;1741843;82;21492;-74
2022/06/18 06:40:18;;;;;;;11.47;10.33;;;;;;;21.01;61.23;100687.35;1739917;81;21028;-73
2022/06/18 06:42:50;;;;;;;12.23;11.13;;;;;;;21.05;60.87;100687.72;1741989;80;21079;-73
2022/06/18 06:45:21;;;;;;;12.77;11.43;;;;;;;21.04;60.92;100690.78;1741747;82;21086;-72
2022/06/18 06:47:50;;;;;;;12.70;11.37;;;;;;;21.02;61.03;100687.02;1730079;80;21122;-74
2022/06/18 06:50:19;;;;;;;12.27;11.07;;;;;;;20.93;61.45;100684.91;1743057;80;21053;-74
2022/06/18 06:52:45;;;;;;;11.53;10.43;;;;;;;20.89;61.39;100689.36;1740789;80;21039;-73
2022/06/18 06:58:05;;;;;;;10.70;9.70;;;;;;;21.01;61.26;100681.92;1739466;80;21072;-73
2022/06/18 07:00:36;;;;;;;12.57;11.40;;;;;;;21.35;61.30;100681.58;1733628;80;21074;-72
2022/06/18 07:03:03;;;;;;;10.60;9.50;;;;;;;21.68;59.83;100688.53;1729956;81;21549;-74
2022/06/18 07:05:29;;;;;;;11.60;10.33;;;;;;;21.91;58.99;100688.47;1729764;80;22180;-73
2022/06/18 07:07:56;;;;;;;11.10;10.00;;;;;;;22.01;57.98;100683.20;1739443;80;21086;-72
2022/06/18 07:10:22;;;;;;;10.40;9.40;;;;;;;21.99;57.67;100685.47;1741551;80;21010;-73
2022/06/18 07:12:49;;;;;;;11.97;10.83;;;;;;;21.88;57.36;100687.80;1737069;81;21728;-73
2022/06/18 07:15:17;;;;;;;12.93;11.73;;;;;;;21.72;57.34;100686.20;1731896;80;21429;-73
2022/06/18 07:17:44;;;;;;;12.03;10.90;;;;;;;21.60;57.48;100684.75;1738441;80;21082;-74
2022/06/18 07:20:13;;;;;;;10.73;9.73;;;;;;;21.47;57.57;100680.34;1741850;80;21067;-73
2022/06/18 07:22:40;;;;;;;10.43;8.87;;;;;;;21.44;58.09;100679.62;1740659;80;21113;-71
2022/06/18 07:25:12;;;;;;;10.53;9.53;;;;;;;21.60;58.50;100685.31;1741437;80;21215;-71
2022/06/18 07:27:40;;;;;;;10.40;9.40;;;;;;;21.80;58.50;100684.55;1712363;83;21011;-73
2022/06/18 07:30:09;;;;;;;10.50;9.40;;;;;;;22.08;57.78;100682.14;1723553;82;21087;-73
2022/06/18 07:32:37;;;;;;;8.77;7.80;;;;;;;22.37;57.28;100680.48;1742051;82;21525;-73
2022/06/18 07:35:05;;;;;;;8.10;7.30;;;;;;;22.69;56.58;100677.55;1742009;82;21023;-73
2022/06/18 07:37:32;;;;;;;8.27;7.50;;;;;;;22.96;55.52;100680.25;1741952;82;21619;-73
2022/06/18 07:39:59;;;;;;;7.83;7.03;;;;;;;23.02;53.68;100681.63;1742069;81;21559;-72
2022/06/18 07:42:25;;;;;;;8.47;7.67;;;;;;;22.90;53.68;100678.84;1740287;82;21087;-72
2022/06/18 07:44:51;;;;;;;8.10;7.20;;;;;;;22.65;54.18;100682.08;1741307;80;21056;-73
2022/06/18 07:47:18;;;;;;;8.23;7.37;;;;;;;22.30;55.38;100681.02;1741247;80;21092;-73
2022/06/18 07:49:46;;;;;;;7.33;6.63;;;;;;;21.94;56.50;100691.09;1741685;80;21066;-73
2022/06/18 07:52:17;;;;;;;7.33;6.67;;;;;;;21.64;57.36;100699.27;1741896;82;21040;-72
2022/06/18 07:54:42;;;;;;;8.20;7.13;;;;;;;21.33;58.00;100700.91;1741028;80;21115;-71
2022/06/18 07:57:09;;;;;;;8.10;7.23;;;;;;;21.11;58.87;100703.86;1741595;80;21256;-73
2022/06/18 07:59:38;;;;;;;8.20;7.20;;;;;;;20.95;59.93;100703.02;1741924;80;21146;-72
2022/06/18 08:02:09;;;;;;;7.73;6.80;;;;;;;20.87;60.73;100704.41;1740763;80;21142;-72
2022/06/18 08:04:37;;;;;;;7.60;6.70;;;;;;;20.75;61.24;100698.27;1741394;80;20981;-72
2022/06/18 08:07:04;;;;;;;7.77;6.80;;;;;;;20.64;61.81;100703.23;1741377;80;21111;-72
2022/06/18 08:09:31;;;;;;;8.03;7.10;;;;;;;20.62;61.78;100702.75;1742011;80;21047;-72
2022/06/18 08:11:59;;;;;;;7.30;6.60;;;;;;;20.61;62.37;100702.52;1741953;81;21094;-72
2022/06/18 08:14:26;;;;;;;7.57;6.77;;;;;;;20.61;62.52;100706.59;1712640;80;21318;-71
2022/06/18 08:16:52;;;;;;;7.17;6.43;;;;;;;20.64;62.31;100707.31;1741018;80;21006;-72
2022/06/18 08:19:18;;;;;;;7.60;6.80;;;;;;;20.70;62.26;100707.95;1738458;80;20946;-72
2022/06/18 08:21:48;;;;;;;7.20;6.50;;;;;;;20.76;62.15;100706.64;1741609;80;20982;-73
2022/06/18 08:24:17;;;;;;;8.20;6.97;;;;;;;20.82;61.76;100706.15;1741924;80;21114;-72
2022/06/18 08:26:44;;;;;;;7.20;6.50;;;;;;;20.91;61.25;100705.34;1741879;81;21620;-72
2022/06/18 08:29:14;;;;;;;6.80;6.20;;;;;;;20.96;61.09;100703.27;1741439;80;21067;-72
2022/06/18 08:31:40;;;;;;;8.07;6.57;;;;;;;21.04;61.23;100708.43;1741692;81;21023;-72
2022/06/18 08:34:06;;;;;;;7.93;7.00;;;;;;;21.16;60.84;100707.74;1740297;82;21078;-73
2022/06/18 08:36:33;;;;;;;9.27;7.60;;;;;;;21.12;60.61;100703.52;1740198;82;21636;-73
2022/06/18 08:39:02;;;;;;;8.90;8.03;;;;;;;21.16;60.67;100711.28;1740300;82;21138;-72
2022/06/18 08:41:49;;;;;;;8.87;7.97;;;;;;;21.19;60.41;100709.81;1685833;82;20984;-71
2022/06/18 08:45:00;;;;;;;9.83;8.87;;;;;;;21.19;60.47;100713.35;1730219;82;21036;-72
2022/06/18 08:48:12;;;;;;;9.17;8.27;;;;;;;21.66;58.88;100714.70;1742659;81;21118;-74
2022/06/18 08:51:25;;;;;;;9.15;8.15;;;;;;;21.71;58.32;100714.49;1741509;80;21552;-72
2022/06/18 08:54:17;;;;;;;9.40;8.40;;;;;;;21.71;58.22;100710.98;1741967;80;21206;-73
2022/06/18 08:56:59;;;;;;;8.68;7.87;;;;;;;21.76;57.81;100712.96;1740557;80;21862;-73
2022/06/18 08:59:46;;;;;;;9.33;8.43;;;;;;;21.83;57.91;100713.01;1739977;80;21523;-74
2022/06/18 09:02:37;;;;;;;9.03;8.13;;;;;;;21.94;57.85;100719.65;1741024;80;21033;-72
2022/06/18 09:05:34;;;;;;;7.85;7.05;;;;;;;22.02;57.06;100721.53;1725718;80;21036;-72
2022/06/18 09:08:50;;;;;;;7.53;6.80;;;;;;;22.01;56.59;100724.82;1741121;80;21718;-72
2022/06/18 09:11:34;;;;;;;8.23;7.43;;;;;;;22.01;56.87;100728.08;1741134;80;21056;-71
2022/06/18 09:14:15;;;;;;;8.27;7.40;;;;;;;22.03;57.15;100723.12;1741029;80;21606;-71
2022/06/18 09:16:51;;;;;;;7.65;6.85;;;;;;;21.95;57.48;100728.85;1742151;80;21069;-71
2022/06/18 09:19:19;;;;;;;8.00;6.97;;;;;;;21.91;58.25;100732.55;1696573;81;21450;-71
2022/06/18 09:21:55;;;;;;;9.17;8.37;;;;;;;21.87;59.16;100729.69;1729808;81;21100;-73
2022/06/18 09:24:44;;;;;;;8.13;7.33;;;;;;;21.86;60.17;100728.67;1771520;80;21031;-72
2022/06/18 09:27:28;;;;;;;8.40;7.63;;;;;;;21.84;61.39;100731.70;1743865;80;21041;-72
2022/06/18 09:30:06;;;;;;;8.67;7.97;;;;;;;21.77;62.85;100741.73;1742255;81;21048;-71
2022/06/18 09:32:49;;;;;;;7.63;6.93;;;;;;;21.63;63.02;100742.53;1741803;80;21067;-70
2022/06/18 09:35:43;;;;;;;7.90;7.20;;;;;;;21.48;63.71;100740.34;1742138;82;21865;-72
2022/06/18 09:38:21;;;;;;;7.20;6.50;;;;;;;21.50;63.04;100732.11;1742182;80;21597;-72
2022/06/18 09:40:52;;;;;;;7.87;7.07;;;;;;;21.64;63.00;100732.45;1739183;80;21456;-72
2022/06/18 09:43:43;;;;;;;;;;;;;;;21.75;63.02;100731.77;1744372;80;20946;-73
2022/06/18 09:46:28;;;;;;;7.40;6.60;;;;;;;21.84;62.99;100729.55;1741306;80;20195;-73
2022/06/18 09:48:54;;;;;;;6.57;5.97;;;;;;;21.91;62.54;100728.46;1741630;80;21237;-73
2022/06/18 09:51:32;;;;;;;7.00;6.30;;;;;;;21.99;62.17;100726.27;1741150;80;21537;-73
2022/06/18 09:54:03;;;;;;;6.70;5.97;;;;;;;22.04;61.72;100728.78;1741344;82;21561;-73
2022/06/18 09:56:35;;;;;;;;;;;;;;;22.19;61.46;100726.88;1758811;80;21090;-73
2022/06/18 09:59:06;;;;;;;6.20;5.60;;;;;;;22.29;61.10;100727.05;1741945;80;20175;-74
2022/06/18 10:01:45;;;;;;;5.53;5.00;;;;;;;22.25;60.82;100719.33;1742379;80;21256;-74
2022/06/18 10:07:04;;;;;;;5.67;5.13;;;;;;;22.68;59.51;100710.78;1729135;80;21086;-72
2022/06/18 10:09:40;;;;;;;5.53;4.87;;;;;;;22.99;57.87;100712.27;1742115;82;20980;-72
2022/06/18 10:12:24;;;;;;;7.10;5.47;;;;;;;23.15;56.58;100710.48;1742274;80;21877;-73
2022/06/18 10:14:59;;;;;;;5.87;5.27;;;;;;;23.32;55.44;100706.75;1712898;83;21633;-72
2022/06/18 10:17:45;;;;;;;6.10;5.50;;;;;;;23.50;54.49;100703.83;1734556;81;21047;-74
2022/06/18 10:20:46;;;;;;;5.90;5.30;;;;;;;23.70;53.72;100698.06;1739896;80;21518;-74
2022/06/18 10:23:30;;;;;;;5.17;4.67;;;;;;;23.97;52.77;100701.42;1741354;80;21777;-73
2022/06/18 10:26:44;;;;;;;5.80;4.87;;;;;;;24.24;50.96;100700.45;1739974;80;21114;-72
2022/06/18 10:29:31;;;;;;;5.73;4.43;;;;;;;24.41;50.44;100692.57;1741721;80;21035;-72
2022/06/18 10:32:10;;;;;;;5.60;4.87;;;;;;;24.58;49.29;100690.92;1742123;81;21063;-73
2022/06/18 10:35:09;;;;;;;5.80;4.63;;;;;;;24.74;49.65;100689.00;1741696;80;21048;-72
2022/06/18 10:37:54;;;;;;;5.30;4.40;;;;;;;24.95;48.99;100687.42;1739533;80;21575;-73
2022/06/18 10:41:09;;;;;;;4.00;2.80;;;;;;;24.94;48.00;100684.47;1738492;80;21072;-73
2022/06/18 10:43:49;;;;;;;3.57;2.10;;;;;;;24.81;45.67;100681.59;1739689;80;21225;-73
2022/06/18 10:46:20;;;;;;;2.93;2.13;;;;;;;24.67;43.16;100696.22;1741138;80;20990;-72
2022/06/18 10:48:53;;;;;;;4.53;2.23;;;;;;;24.54;43.05;100694.11;1741279;80;21087;-72
2022/06/18 10:51:25;;;;;;;4.17;2.10;;;;;;;24.43;42.55;100700.64;1741750;80;21128;-73
2022/06/18 10:54:03;;;;;;;3.60;2.12;;;;;;;24.34;42.29;100701.32;1741224;80;21546;-73
2022/06/18 10:56:33;;;;;;;3.53;1.90;;;;;;;24.35;42.22;100696.11;1741629;80;22463;-73
2022/06/18 10:59:02;;;;;;;2.97;1.90;;;;;;;24.39;42.04;100694.27;1742012;82;20984;-73
2022/06/18 11:01:46;;;;;;;3.20;2.00;;;;;;;24.51;42.19;100692.89;1742087;80;21146;-74
2022/06/18 11:04:30;;;;;;;2.80;1.80;;;;;;;24.64;42.06;100691.45;1741896;82;21673;-73
2022/06/18 11:07:07;;;;;;;3.37;2.10;;;;;;;24.74;42.25;100687.63;1741967;80;21150;-72
2022/06/18 11:09:41;;;;;;;2.80;2.03;;;;;;;24.84;41.50;100684.17;1741289;80;21259;-72
2022/06/18 11:12:28;;;;;;;3.60;1.87;;;;;;;24.90;41.23;100686.30;1739151;80;21145;-72
2022/06/18 11:14:55;;;;;;;2.67;2.03;;;;;;;25.00;41.85;100682.25;1740018;80;21550;-73
2022/06/18 11:17:28;;;;;;;3.23;2.10;;;;;;;25.23;41.88;100682.47;1741661;80;21077;-72
2022/06/18 11:20:30;;;;;;;3.23;2.17;;;;;;;25.43;40.76;100685.49;1741446;80;21062;-72
2022/06/18 11:23:06;;;;;;;3.40;2.13;;;;;;;25.54;40.49;100691.81;1737676;80;21176;-72
2022/06/18 11:25:45;;;;;;;3.50;1.80;;;;;;;25.45;39.44;100702.34;1740257;80;21059;-72
2022/06/18 11:28:21;;;;;;;3.33;2.20;;;;;;;25.31;39.94;100717.05;1741731;80;20954;-73
2022/06/18 11:30:50;;;;;;;3.93;2.00;;;;;;;25.11;40.48;100711.24;1741006;80;21520;-72
2022/06/18 11:33:36;;;;;;;3.60;2.07;;;;;;;24.86;40.74;100721.51;1741082;80;21056;-73
2022/06/18 11:36:14;;;;;;;2.80;1.93;;;;;;;24.69;40.99;100711.70;1740739;80;21978;-72
2022/06/18 11:38:44;;;;;;;3.33;2.10;;;;;;;24.57;41.14;100717.41;1740362;80;21611;-71
2022/06/18 11:41:19;;;;;;;2.97;2.13;;;;;;;24.54;41.57;100715.37;1710949;80;33109;-72
2022/06/18 11:44:04;;;;;;;2.23;1.70;;;;;;;24.56;40.96;100710.38;1738536;80;21173;-73
2022/06/18 11:46:42;;;;;;;2.97;1.90;;;;;;;24.65;40.97;100702.04;1741579;80;21421;-73
2022/06/18 11:49:20;;;;;;;3.10;1.90;;;;;;;24.69;40.12;100698.03;1736873;80;21239;-74
2022/06/18 11:52:02;;;;;;;3.10;1.83;;;;;;;24.65;40.00;100702.04;1731837;80;21106;-73
2022/06/18 11:54:51;;;;;;;3.12;1.82;;;;;;;24.51;40.50;100695.63;1738694;80;21668;-74
2022/06/18 11:57:39;;;;;;;3.47;1.70;;;;;;;24.48;40.52;100700.41;1741464;80;21555;-73
2022/06/18 12:00:26;;;;;;;2.53;1.80;;;;;;;24.59;39.39;100697.17;1739107;80;21021;-72
2022/06/18 12:03:39;;;;;;;2.93;1.83;;;;;;;24.23;40.34;100705.12;1740601;80;21254;-72
2022/06/18 12:06:20;;;;;;;2.93;1.80;;;;;;;24.01;41.42;100698.23;1741634;80;20962;-72